< < Back
Terminal Aerodrome Forecast


Current Version              Previous Versions:   1  2  3  4  5  6  7  8  9  

Terminal Aerodrome Forecast

120
FTUS42 KGSP 010401 AAA
TAFHKY
TAF AMD
KHKY 010401Z 0104/0124 00000KT P6SM VCTS BKN040CB
      TEMPO 0104/0106 3SM TSRA BR OVC020CB
     FM010600 00000KT 6SM BR SCT250
      TEMPO 0110/0112 1 1/2SM BR OVC004
     FM011500 24006KT P6SM SCT060=



Latest METAR

180
SAUS70 KWBC 011500 RRX
MTRHKY
METAR KHKY 011453Z 19004KT 10SM FEW015 25/21 A3003 RMK AO2 SLP147
T02500211 50006


USA.gov is the U.S. government's official web portal to all federal, state and local government web resources and services.